Flight Track Log - Related Links

Times and Time Zones

All times are in EDT time to prevent confusion due to time zone crossing. See the KAL643 flight status page for this flight to view local times or setup timezone preferences in your user account.

Time Position Orientation Groundspeed Altitude Reporting Facility
EDT Latitude Longitude Course Direction KTS MPH feet Rate Location/Type
Mon 01:55:22 AM 37.4460 126.1510 195° South 300 345 8,900  Level FlightAware ADS-B
Mon 01:56:07 AM 37.3870 126.1680 167° South 314 361 10,300 1,575 Climbing FlightAware ADS-B
Mon 01:56:42 AM 37.3510 126.2200 131° Southeast 352 405 11,000 1,200 Climbing FlightAware ADS-B
Mon 01:57:27 AM 37.3020 126.2870 133° Southeast 380 437 11,900 1,933 Climbing FlightAware ADS-B
Mon 01:58:12 AM 37.2230 126.3410 151° Southeast 393 452 13,900 2,259 Climbing FlightAware ADS-B
Mon 01:58:52 AM 37.1550 126.3790 156° South 407 468 15,100 1,906 Climbing FlightAware ADS-B
Mon 01:59:37 AM 37.0770 126.4230 156° South 426 490 16,600 1,976 Climbing FlightAware ADS-B
Mon 02:00:17 AM 37.0050 126.4640 156° South 425 489 17,900 1,050 Climbing FlightAware ADS-B
Mon 02:00:57 AM 36.9410 126.5010 155° Southeast 426 490 18,000 75 Climbing FlightAware ADS-B
Mon 02:01:37 AM 36.8810 126.5360 155° Southeast 426 490 18,000  Level FlightAware ADS-B
Mon 02:02:17 AM 36.8200 126.5720 155° Southeast 426 490 18,000  Level FlightAware ADS-B
Mon 02:03:07 AM 36.7440 126.6160 155° Southeast 426 490 18,000  Level FlightAware ADS-B
Mon 02:03:47 AM 36.6830 126.6510 155° Southeast 426 490 18,000 7,080 Level FlightAware ADS-B
Mon 02:03:57 AM 36.5750 126.6690 172° South 387 445 23,900 6,436 Climbing FlightAware ADS-B
Mon 02:04:42 AM 36.5230 126.7280 138° Southeast 387 445 23,900  Level FlightAware ADS-B
Mon 02:05:22 AM 36.4770 126.7780 139° Southeast 387 445 23,900  Level FlightAware ADS-B
Mon 02:06:02 AM 36.4320 126.8290 138° Southeast 387 445 23,900  Level FlightAware ADS-B
Mon 02:06:52 AM 36.3760 126.8920 138° Southeast 387 445 23,900  Level FlightAware ADS-B
Mon 02:07:32 AM 36.3300 126.9430 138° Southeast 387 445 23,900 307 Level FlightAware ADS-B
Mon 02:10:00 AM 36.1493 126.7773 217° Southwest  Level Estimated
Mon 02:11:00 AM 36.0760 126.7103 216° Southwest  Level Estimated
Mon 02:12:00 AM 36.0026 126.6435 216° Southwest  Level Estimated
Mon 02:13:00 AM 35.9292 126.5768 216° Southwest  Level Estimated
Mon 02:14:00 AM 35.8557 126.5102 216° Southwest  Level Estimated
Mon 02:15:00 AM 35.7823 126.4437 216° Southwest  Level Estimated
Mon 02:16:00 AM 35.7088 126.3774 216° Southwest  Level Estimated
Mon 02:17:00 AM 35.6352 126.3112 216° Southwest  Level Estimated
Mon 02:18:00 AM 35.5616 126.2451 216° Southwest  Level Estimated
Mon 02:19:00 AM 35.4880 126.1791 216° Southwest  Level Estimated
Mon 02:20:00 AM 35.4143 126.1133 216° Southwest  Level Estimated
Mon 02:21:00 AM 35.3406 126.0475 216° Southwest  Level Estimated
Mon 02:22:00 AM 35.2669 125.9819 216° Southwest  Level Estimated
Mon 02:23:00 AM 35.1931 125.9164 216° Southwest  Level Estimated
Mon 02:24:00 AM 35.1193 125.8511 216° Southwest  Level Estimated
Mon 02:25:00 AM 35.0455 125.7858 216° Southwest  Level Estimated
Mon 02:26:00 AM 34.9716 125.7207 216° Southwest  Level Estimated
Mon 02:27:00 AM 34.8977 125.6556 216° Southwest  Level Estimated
Mon 02:28:00 AM 34.8238 125.5908 216° Southwest  Level Estimated
Mon 02:29:00 AM 34.7498 125.5260 216° Southwest  Level Estimated
Mon 02:30:00 AM 34.6758 125.4613 216° Southwest  Level Estimated
Mon 02:31:00 AM 34.6018 125.3967 216° Southwest  Level Estimated
Mon 02:32:00 AM 34.5277 125.3323 216° Southwest  Level Estimated
Mon 02:33:00 AM 34.4536 125.2680 216° Southwest  Level Estimated
Mon 02:34:00 AM 34.3794 125.2038 216° Southwest  Level Estimated
Mon 02:35:00 AM 34.3053 125.1396 216° Southwest  Level Estimated
Mon 02:36:00 AM 34.2310 125.0757 215° Southwest  Level Estimated
Mon 02:37:00 AM 34.1568 125.0118 215° Southwest  Level Estimated
Mon 02:38:00 AM 34.0825 124.9480 215° Southwest  Level Estimated
Mon 02:39:00 AM 34.0082 124.8844 215° Southwest  Level Estimated
Mon 02:40:00 AM 33.9339 124.8208 215° Southwest  Level Estimated
Mon 02:41:00 AM 33.8595 124.7574 215° Southwest  Level Estimated
Mon 02:42:00 AM 33.7851 124.6941 215° Southwest  Level Estimated
Mon 02:43:00 AM 33.7107 124.6309 215° Southwest  Level Estimated
Mon 02:44:00 AM 33.6362 124.5678 215° Southwest  Level Estimated
Mon 02:45:00 AM 33.5617 124.5048 215° Southwest  Level Estimated
Mon 02:46:00 AM 33.4871 124.4419 215° Southwest  Level Estimated
Mon 02:46:17 AM 31.1540 125.4270 215° Southwest 459 528 36,000  Level FlightAware ADS-B
Mon 02:46:52 AM 31.0900 125.4010 199° South 459 528 36,000  Level FlightAware ADS-B
Mon 02:47:00 AM 33.4126 124.3791 215° Southwest  Level Estimated
Mon 02:47:32 AM 31.0210 125.3730 199° South 459 528 36,000  Level FlightAware ADS-B
Mon 02:48:22 AM 30.9360 125.3390 199° South 459 528 36,000  Level FlightAware ADS-B
Mon 02:49:32 AM 30.7630 125.2650 200° South 36,000  Level FlightAware ADS-B
Mon 02:50:12 AM 30.6810 125.2310 200° South 446 513 36,000  Level FlightAware ADS-B
Mon 02:50:52 AM 30.6120 125.2020 200° South 447 514 36,000  Level FlightAware ADS-B
Mon 02:51:37 AM 30.5130 125.1620 199° South 36,000  Level FlightAware ADS-B
Mon 02:52:32 AM 30.3990 125.1510 185° South 464 534 36,000  Level FlightAware ADS-B
Mon 02:53:17 AM 30.3040 125.1660 172° South 482 555 36,000  Level FlightAware ADS-B
Mon 02:53:52 AM 30.2240 125.1770 173° South 482 555 36,000  Level FlightAware ADS-B
Mon 02:54:32 AM 30.1490 125.1870 173° South 482 555 36,000  Level FlightAware ADS-B
Mon 02:55:12 AM 30.0380 125.1950 176° South 480 552 36,000  Level FlightAware ADS-B
Mon 02:57:00 AM 29.9031 125.0874 215° Southwest  Level FlightAware Approximate
Mon 02:58:00 AM 29.8281 125.0277 215° Southwest  Level FlightAware Approximate
Mon 02:59:00 AM 29.7530 124.9681 215° Southwest  Level FlightAware Approximate
Mon 03:00:00 AM 29.6780 124.9086 215° Southwest  Level FlightAware Approximate
Mon 03:00:17 AM 29.4550 124.9180 215° Southwest 438 504 36,000  Level FlightAware ADS-B
Mon 03:00:57 AM 29.3810 124.8570 216° Southwest 437 503 36,000  Level FlightAware ADS-B
Mon 03:01:42 AM 29.3050 124.7950 215° Southwest 438 504 36,000  Level FlightAware ADS-B
Mon 03:02:22 AM 29.2380 124.7400 216° Southwest 439 505 36,000  Level FlightAware ADS-B
Mon 03:03:02 AM 29.1700 124.6860 215° Southwest 439 505 36,000  Level FlightAware ADS-B
Mon 03:03:47 AM 29.0980 124.6270 216° Southwest 438 504 36,000  Level FlightAware ADS-B
Mon 03:04:27 AM 29.0270 124.5700 215° Southwest 438 504 36,000  Level FlightAware ADS-B
Mon 03:05:12 AM 28.9520 124.5090 215° Southwest 438 504 36,000  Level FlightAware ADS-B
Mon 03:05:47 AM 28.8920 124.4610 215° Southwest 436 502 36,000  Level FlightAware ADS-B
Mon 03:06:32 AM 28.8240 124.4060 215° Southwest 436 502 36,000  Level FlightAware ADS-B
Mon 03:07:17 AM 28.7590 124.3540 215° Southwest 436 502 36,000  Level FlightAware ADS-B
Mon 03:07:57 AM 28.7030 124.3100 215° Southwest 436 502 36,000  Level FlightAware ADS-B
Mon 03:08:37 AM 28.6470 124.2650 215° Southwest 436 502 36,000  Level FlightAware ADS-B
Mon 03:09:17 AM 28.5900 124.2200 215° Southwest 436 502 36,000  Level FlightAware ADS-B
Mon 03:10:02 AM 28.4700 124.1230 215° Southwest 436 502 36,000  Level FlightAware ADS-B
Mon 03:10:47 AM 28.3900 124.0600 215° Southwest 438 504 36,000  Level FlightAware ADS-B
Mon 03:11:22 AM 28.3310 124.0130 215° Southwest 438 504 36,000  Level FlightAware ADS-B
Mon 03:12:12 AM 28.2470 123.9450 215° Southwest 437 503 36,000  Level FlightAware ADS-B
Mon 03:12:42 AM 28.1960 123.9030 216° Southwest 437 503 36,000  Level FlightAware ADS-B
Mon 03:13:32 AM 28.1280 123.8470 216° Southwest 437 503 36,000  Level FlightAware ADS-B
Mon 03:14:12 AM 28.0720 123.8010 216° Southwest 437 503 36,000  Level FlightAware ADS-B
Mon 03:14:52 AM 28.0170 123.7560 216° Southwest 437 503 36,000  Level FlightAware ADS-B
Mon 03:15:42 AM 27.9470 123.6980 216° Southwest 437 503 36,000  Level FlightAware ADS-B
Mon 03:16:22 AM 27.8920 123.6530 216° Southwest 437 503 36,000  Level FlightAware ADS-B
Mon 03:17:02 AM 27.8360 123.6070 216° Southwest 437 503 36,000  Level FlightAware ADS-B
Mon 03:17:42 AM 27.7800 123.5610 216° Southwest 437 503 36,000  Level FlightAware ADS-B
Mon 03:18:22 AM 27.7250 123.5160 216° Southwest 437 503 36,000  Level FlightAware ADS-B
Mon 03:19:02 AM 27.6690 123.4700 216° Southwest 437 503 36,000  Level FlightAware ADS-B
Mon 03:19:52 AM 27.6000 123.4130 216° Southwest 437 503 36,000  Level FlightAware ADS-B
Mon 03:20:32 AM 27.5440 123.3670 216° Southwest 437 503 36,000  Level FlightAware ADS-B
Mon 03:21:12 AM 27.4890 123.3220 216° Southwest 437 503 36,000  Level FlightAware ADS-B
Mon 03:21:52 AM 27.4330 123.2760 216° Southwest 437 503 36,000  Level FlightAware ADS-B
Mon 03:22:37 AM 27.2010 123.0980 214° Southwest 445 512 36,000  Level FlightAware ADS-B
Mon 03:23:17 AM 27.1350 123.0450 216° Southwest 445 512 36,000  Level FlightAware ADS-B
Mon 03:23:57 AM 27.0640 122.9890 215° Southwest 445 512 36,000  Level FlightAware ADS-B
Mon 03:24:47 AM 26.9790 122.9210 215° Southwest 445 512 36,000  Level FlightAware ADS-B
Mon 03:25:27 AM 26.9110 122.8670 215° Southwest 446 513 36,000  Level FlightAware ADS-B
Mon 03:26:12 AM 26.8380 122.8100 215° Southwest 446 513 36,000  Level FlightAware ADS-B
Mon 03:26:47 AM 26.7760 122.7600 216° Southwest 446 513 36,000  Level FlightAware ADS-B
Mon 03:27:32 AM 26.7010 122.7010 215° Southwest 447 514 36,000  Level FlightAware ADS-B
Mon 03:28:17 AM 26.6260 122.6420 215° Southwest 448 516 36,000  Level FlightAware ADS-B
Mon 03:28:57 AM 26.5570 122.5870 215° Southwest 447 514 36,000  Level FlightAware ADS-B
Mon 03:29:42 AM 26.4830 122.5280 216° Southwest 447 514 36,000  Level FlightAware ADS-B
Mon 03:30:22 AM 26.4150 122.4750 215° Southwest 448 516 36,000  Level FlightAware ADS-B
Mon 03:30:57 AM 26.3550 122.4280 215° Southwest 448 516 36,000  Level FlightAware ADS-B
Mon 03:31:47 AM 26.2690 122.3610 215° Southwest 448 516 36,000  Level FlightAware ADS-B
Mon 03:32:27 AM 26.2010 122.3070 215° Southwest 448 516 36,000  Level FlightAware ADS-B
Mon 03:33:12 AM 26.1260 122.2490 215° Southwest 450 518 36,000  Level FlightAware ADS-B
Mon 03:33:52 AM 26.0570 122.1960 215° Southwest 450 518 36,000  Level FlightAware ADS-B
Mon 03:34:32 AM 25.9890 122.1440 215° Southwest 450 518 36,000  Level FlightAware ADS-B
Mon 03:35:17 AM 25.9100 122.0840 214° Southwest 450 518 36,000  Level FlightAware ADS-B
Mon 03:35:57 AM 25.8410 122.0310 215° Southwest 451 519 36,000  Level FlightAware ADS-B
Mon 03:36:37 AM 25.7720 121.9780 215° Southwest 452 520 36,000  Level FlightAware ADS-B
Mon 03:37:22 AM 25.6970 121.9210 214° Southwest 451 519 36,000  Level FlightAware ADS-B
Mon 03:38:02 AM 25.6270 121.8680 214° Southwest 451 519 36,000  Level FlightAware ADS-B
Mon 03:38:47 AM 25.5490 121.8070 215° Southwest 452 520 36,000  Level FlightAware ADS-B
Mon 03:39:27 AM 25.4790 121.7530 215° Southwest 452 520 36,000  Level FlightAware ADS-B
Mon 03:40:12 AM 25.4040 121.6960 214° Southwest 453 521 36,000  Level FlightAware ADS-B
Mon 03:40:52 AM 25.3340 121.6420 215° Southwest 454 522 36,000  Level FlightAware ADS-B
Mon 03:41:32 AM 25.2650 121.5890 215° Southwest 454 522 36,000  Level FlightAware ADS-B
Mon 03:42:02 AM 25.2120 121.5540 211° Southwest 463 533 36,000  Level FlightAware ADS-B
Mon 03:42:17 AM 25.1780 121.5460 192° South 476 548 36,000  Level FlightAware ADS-B
Mon 03:42:57 AM 25.0900 121.5730 164° South 504 580 36,000  Level FlightAware ADS-B
Mon 03:43:42 AM 24.9990 121.6300 150° Southeast 505 581 36,000  Level FlightAware ADS-B
Mon 03:44:17 AM 24.9300 121.6750 149° Southeast 506 582 36,000  Level FlightAware ADS-B
Mon 03:45:02 AM 24.8540 121.7230 150° Southeast 507 583 36,000  Level FlightAware ADS-B
Mon 03:45:47 AM 24.7660 121.7770 151° Southeast 508 585 36,000  Level FlightAware ADS-B
Mon 03:46:27 AM 24.6610 121.8410 151° Southeast 508 585 36,000  Level FlightAware ADS-B
Mon 03:47:07 AM 24.5850 121.8880 151° Southeast 508 585 36,000  Level FlightAware ADS-B
Mon 03:47:47 AM 24.4930 121.9270 159° South 497 572 36,000  Level FlightAware ADS-B
Mon 03:48:37 AM 24.4050 121.9280 179° South 483 556 36,000  Level FlightAware ADS-B
Mon 03:49:17 AM 24.3120 121.9090 191° South 481 554 36,000  Level FlightAware ADS-B
Mon 03:49:47 AM 24.2490 121.8950 191° South 481 554 36,000  Level FlightAware ADS-B
Mon 03:50:42 AM 24.1070 121.8650 191° South 480 552 36,000  Level FlightAware ADS-B
Mon 03:51:22 AM 24.0210 121.8470 191° South 480 552 36,000  Level FlightAware ADS-B
Mon 03:52:02 AM 23.9350 121.8300 190° South 481 554 36,000  Level FlightAware ADS-B
Mon 03:52:42 AM 23.8450 121.8110 191° South 480 552 36,000  Level FlightAware ADS-B
Mon 03:53:27 AM 23.7450 121.7910 190° South 481 554 36,000  Level FlightAware ADS-B
Mon 03:54:12 AM 23.6680 121.7750 191° South 482 555 36,000  Level FlightAware ADS-B
Mon 03:54:47 AM 23.5920 121.7600 190° South 482 555 36,000  Level FlightAware ADS-B
Mon 03:55:32 AM 23.4980 121.7400 191° South 483 556 36,000  Level FlightAware ADS-B
Mon 03:56:12 AM 23.4050 121.7190 192° South 480 552 36,000  Level FlightAware ADS-B
Mon 03:56:57 AM 23.3180 121.6930 195° South 477 549 36,000  Level FlightAware ADS-B
Mon 03:57:42 AM 23.2170 121.6590 197° South 475 547 36,000  Level FlightAware ADS-B
Mon 03:58:12 AM 23.1480 121.6370 196° South 473 544 36,000  Level FlightAware ADS-B
Mon 03:59:07 AM 23.0140 121.5940 196° South 473 544 36,000  Level FlightAware ADS-B
Mon 03:59:47 AM 22.9300 121.5670 196° South 474 545 36,000  Level FlightAware ADS-B
Mon 04:00:27 AM 22.8440 121.5400 196° South 474 545 36,000  Level FlightAware ADS-B
Mon 04:01:12 AM 22.7540 121.5110 197° South 475 547 36,000  Level FlightAware ADS-B
Mon 04:01:52 AM 22.6760 121.4810 200° South 467 537 36,000  Level FlightAware ADS-B
Mon 04:02:37 AM 22.5910 121.4160 215° Southwest 460 529 36,000  Level FlightAware ADS-B
Mon 04:03:17 AM 22.5240 121.3580 219° Southwest 460 529 36,000  Level FlightAware ADS-B
Mon 04:03:57 AM 22.4580 121.3000 219° Southwest 459 528 36,000  Level FlightAware ADS-B
Mon 04:04:42 AM 22.3870 121.2390 218° Southwest 458 527 36,000  Level FlightAware ADS-B
Mon 04:05:22 AM 22.3160 121.1780 218° Southwest 458 527 36,000  Level FlightAware ADS-B
Mon 04:06:07 AM 22.2450 121.1160 219° Southwest 458 527 36,000  Level FlightAware ADS-B
Mon 04:06:47 AM 22.1790 121.0590 219° Southwest 458 527 36,000  Level FlightAware ADS-B
Mon 04:07:27 AM 22.1120 121.0010 219° Southwest 458 527 36,000  Level FlightAware ADS-B
Mon 04:08:07 AM 22.0470 120.9460 218° Southwest 458 527 36,000  Level FlightAware ADS-B
Mon 04:08:47 AM 21.9920 120.8990 218° Southwest 459 528 36,000  Level FlightAware ADS-B
Mon 04:09:37 AM 21.9150 120.8290 220° Southwest 456 525 36,000  Level FlightAware ADS-B
Mon 04:10:17 AM 21.8530 120.7660 223° Southwest 456 525 36,000  Level FlightAware ADS-B
Mon 04:10:57 AM 21.7890 120.6980 225° Southwest 456 525 36,000  Level FlightAware ADS-B
Mon 04:11:42 AM 21.7260 120.6320 224° Southwest 456 525 36,000  Level FlightAware ADS-B
Mon 04:12:22 AM 21.6590 120.5620 224° Southwest 458 527 36,000  Level FlightAware ADS-B
Mon 04:13:02 AM 21.6030 120.5040 224° Southwest 458 527 36,000  Level FlightAware ADS-B
Mon 04:13:47 AM 21.5310 120.4300 224° Southwest 459 528 36,000  Level FlightAware ADS-B
Mon 04:14:22 AM 21.4740 120.3700 224° Southwest 459 528 36,000  Level FlightAware ADS-B
Mon 04:15:12 AM 21.4000 120.2940 224° Southwest 459 528 36,000  Level FlightAware ADS-B
Mon 04:15:52 AM 21.3370 120.2280 224° Southwest 459 528 36,000  Level FlightAware ADS-B
Mon 04:16:32 AM 21.2760 120.1650 224° Southwest 458 527 36,000  Level FlightAware ADS-B
Mon 04:17:12 AM 21.2230 120.1100 224° Southwest 457 526 36,000  Level FlightAware ADS-B
Mon 04:17:57 AM 21.1510 120.0360 224° Southwest 457 526 36,000  Level FlightAware ADS-B
Mon 04:18:37 AM 21.0870 119.9700 224° Southwest 458 527 36,000  Level FlightAware ADS-B
Mon 04:19:17 AM 21.0300 119.9100 225° Southwest 459 528 36,000  Level FlightAware ADS-B
Mon 04:20:02 AM 20.9480 119.8240 224° Southwest 458 527 36,000  Level FlightAware ADS-B
Mon 04:20:47 AM 20.8830 119.7530 226° Southwest 459 528 36,000  Level FlightAware ADS-B
Mon 04:21:27 AM 20.8320 119.6980 225° Southwest 460 529 36,000  Level FlightAware ADS-B
Mon 04:22:22 AM 20.7590 119.6200 225° Southwest 461 531 36,000  Level FlightAware ADS-B
Mon 04:22:57 AM 20.7010 119.5570 225° Southwest 461 531 36,000  Level FlightAware ADS-B
Mon 04:24:02 AM 20.6030 119.4520 225° Southwest 463 533 36,000  Level FlightAware ADS-B
Mon 04:24:37 AM 20.5530 119.4000 224° Southwest 463 533 36,000  Level FlightAware ADS-B
Mon 04:25:42 AM 20.4540 119.2930 225° Southwest 463 533 36,000  Level FlightAware ADS-B
Mon 04:26:37 AM 20.3540 119.1860 225° Southwest 463 533 36,000  Level FlightAware ADS-B
Mon 04:27:17 AM 20.3120 119.1410 225° Southwest 463 533 36,000  Level FlightAware ADS-B
Mon 04:28:02 AM 20.2450 119.0700 225° Southwest 463 533 36,000  Level FlightAware ADS-B
Mon 04:28:52 AM 20.1680 118.9890 225° Southwest 462 532 36,000  Level FlightAware ADS-B
Mon 04:29:32 AM 20.1170 118.9340 225° Southwest 462 532 36,000  Level FlightAware ADS-B
Mon 04:30:22 AM 20.0530 118.8650 225° Southwest 462 532 36,000  Level FlightAware ADS-B
Mon 04:31:02 AM 20.0010 118.8110 224° Southwest 462 532 36,000  Level FlightAware ADS-B
Mon 04:31:42 AM 19.9500 118.7560 225° Southwest 462 532 36,000  Level FlightAware ADS-B
Mon 04:32:22 AM 19.8980 118.7010 225° Southwest 462 532 36,000  Level FlightAware ADS-B
Mon 04:33:02 AM 19.8470 118.6470 225° Southwest 462 532 36,000  Level FlightAware ADS-B
Mon 04:33:42 AM 19.7960 118.5920 225° Southwest 462 532 36,000  Level FlightAware ADS-B
Mon 04:34:32 AM 19.7310 118.5240 225° Southwest 462 532 36,000  Level FlightAware ADS-B
Mon 04:35:12 AM 19.6800 118.4690 225° Southwest 462 532 36,000  Level FlightAware ADS-B
Mon 04:35:52 AM 19.6290 118.4150 225° Southwest 462 532 36,000  Level FlightAware ADS-B
Mon 04:36:32 AM 19.5770 118.3600 225° Southwest 462 532 36,000  Level FlightAware ADS-B
Mon 04:37:12 AM 19.5260 118.3060 225° Southwest 462 532 36,000  Level FlightAware ADS-B
Mon 04:38:02 AM 19.4620 118.2370 225° Southwest 462 532 36,000  Level FlightAware ADS-B
Mon 04:40:00 AM 19.3233 118.1167 219° Southwest  Level Estimated
Mon 04:41:00 AM 19.2528 118.0556 219° Southwest  Level Estimated
Mon 04:42:00 AM 19.1822 117.9946 219° Southwest  Level Estimated
Mon 04:43:00 AM 19.1116 117.9336 219° Southwest  Level Estimated
Mon 04:44:00 AM 19.0410 117.8726 219° Southwest  Level Estimated
Mon 04:45:00 AM 18.9704 117.8117 219° Southwest  Level Estimated
Mon 04:46:00 AM 18.8997 117.7509 219° Southwest  Level Estimated
Mon 04:47:00 AM 18.8290 117.6901 219° Southwest  Level Estimated
Mon 04:48:00 AM 18.7583 117.6294 219° Southwest  Level Estimated
Mon 04:49:00 AM 18.6876 117.5687 219° Southwest  Level Estimated
Mon 04:50:00 AM 18.6169 117.5081 219° Southwest  Level Estimated
Mon 04:51:00 AM 18.5462 117.4475 219° Southwest  Level Estimated
Mon 04:52:00 AM 18.4754 117.3870 219° Southwest  Level Estimated
Mon 04:53:00 AM 18.4046 117.3265 219° Southwest  Level Estimated
Mon 04:54:00 AM 18.3338 117.2661 219° Southwest  Level Estimated
Mon 04:55:00 AM 18.2630 117.2057 219° Southwest  Level Estimated
Mon 04:56:00 AM 18.1921 117.1453 219° Southwest  Level Estimated
Mon 04:57:00 AM 18.1212 117.0851 219° Southwest  Level Estimated
Mon 04:58:00 AM 18.0503 117.0248 219° Southwest  Level Estimated
Mon 04:59:00 AM 17.9794 116.9646 219° Southwest  Level Estimated
Mon 05:00:00 AM 17.9085 116.9045 219° Southwest  Level Estimated
Mon 05:01:00 AM 17.8376 116.8444 219° Southwest  Level Estimated
Mon 05:02:00 AM 17.7666 116.7844 219° Southwest  Level Estimated
Mon 05:03:00 AM 17.6956 116.7244 219° Southwest  Level Estimated
Mon 05:04:00 AM 17.6246 116.6644 219° Southwest  Level Estimated
Mon 05:05:00 AM 17.5536 116.6045 219° Southwest  Level Estimated
Mon 05:06:00 AM 17.4826 116.5447 219° Southwest  Level Estimated
Mon 05:07:00 AM 17.4116 116.4849 219° Southwest  Level Estimated
Mon 05:08:00 AM 17.3405 116.4251 219° Southwest  Level Estimated
Mon 05:09:00 AM 17.2694 116.3654 219° Southwest  Level Estimated
Mon 05:10:00 AM 17.1983 116.3057 219° Southwest  Level Estimated
Mon 05:11:00 AM 17.1272 116.2461 219° Southwest  Level Estimated
Mon 05:12:00 AM 17.0560 116.1865 219° Southwest  Level Estimated
Mon 05:13:00 AM 16.9849 116.1270 219° Southwest  Level Estimated
Mon 05:14:00 AM 16.9137 116.0675 219° Southwest  Level Estimated
Mon 05:15:00 AM 16.8425 116.0081 219° Southwest  Level Estimated
Mon 05:16:00 AM 16.7713 115.9487 219° Southwest  Level Estimated
Mon 05:17:00 AM 16.7001 115.8893 219° Southwest  Level Estimated
Mon 05:18:00 AM 16.6288 115.8300 219° Southwest  Level Estimated
Mon 05:19:00 AM 16.5576 115.7708 219° Southwest  Level Estimated
Mon 05:20:00 AM 16.4863 115.7115 219° Southwest  Level Estimated
Mon 05:21:00 AM 16.4150 115.6524 219° Southwest  Level Estimated
Mon 05:22:00 AM 16.3437 115.5932 219° Southwest  Level Estimated
Mon 05:23:00 AM 16.2724 115.5341 218° Southwest  Level Estimated
Mon 05:24:00 AM 16.2010 115.4751 218° Southwest  Level Estimated
Mon 05:25:00 AM 16.1297 115.4161 218° Southwest  Level Estimated
Mon 05:26:00 AM 16.0583 115.3571 218° Southwest  Level Estimated
Mon 05:27:00 AM 15.9869 115.2982 218° Southwest  Level Estimated
Mon 05:28:00 AM 15.9155 115.2393 218° Southwest  Level Estimated
Mon 05:29:00 AM 15.8441 115.1805 218° Southwest  Level Estimated
Mon 05:30:00 AM 15.7727 115.1217 218° Southwest  Level Estimated
Mon 05:31:00 AM 15.7012 115.0630 218° Southwest  Level Estimated
Mon 05:32:00 AM 15.6298 115.0042 218° Southwest  Level Estimated
Mon 05:33:00 AM 15.5583 114.9456 218° Southwest  Level Estimated
Mon 05:34:00 AM 15.4868 114.8869 218° Southwest  Level Estimated
Mon 05:35:00 AM 15.4153 114.8283 218° Southwest  Level Estimated
Mon 05:36:00 AM 15.3437 114.7698 218° Southwest  Level Estimated
Mon 05:37:00 AM 15.2722 114.7113 218° Southwest  Level Estimated
Mon 05:38:00 AM 15.2006 114.6528 218° Southwest  Level Estimated
Mon 05:39:00 AM 15.1290 114.5944 218° Southwest  Level Estimated
Mon 05:40:00 AM 15.0575 114.5360 218° Southwest  Level Estimated
Mon 05:41:00 AM 14.9858 114.4777 218° Southwest  Level Estimated
Mon 05:42:00 AM 14.9142 114.4193 218° Southwest  Level Estimated
Mon 05:43:00 AM 14.8426 114.3611 218° Southwest  Level Estimated
Mon 05:44:00 AM 14.7709 114.3028 218° Southwest  Level Estimated
Mon 05:45:00 AM 14.6993 114.2447 218° Southwest  Level Estimated
Mon 05:46:00 AM 14.6276 114.1865 218° Southwest  Level Estimated
Mon 05:47:00 AM 14.5559 114.1284 218° Southwest  Level Estimated
Mon 05:48:00 AM 14.4842 114.0703 218° Southwest  Level Estimated
Mon 05:49:00 AM 14.4125 114.0123 218° Southwest  Level Estimated
Mon 05:50:00 AM 14.3407 113.9542 218° Southwest  Level Estimated
Mon 05:51:00 AM 14.2690 113.8963 218° Southwest  Level Estimated
Mon 05:52:00 AM 14.1972 113.8383 218° Southwest  Level Estimated
Mon 05:53:00 AM 14.1254 113.7804 218° Southwest  Level Estimated
Mon 05:54:00 AM 14.0536 113.7226 218° Southwest  Level Estimated
Mon 05:55:00 AM 13.9818 113.6648 218° Southwest  Level Estimated
Mon 05:56:00 AM 13.9100 113.6070 218° Southwest  Level Estimated
Mon 05:57:00 AM 13.8382 113.5492 218° Southwest  Level Estimated
Mon 05:58:00 AM 13.7663 113.4915 218° Southwest  Level Estimated
Mon 05:59:00 AM 13.6945 113.4338 218° Southwest  Level Estimated
Mon 06:00:00 AM 13.6226 113.3762 218° Southwest  Level Estimated
Mon 06:01:00 AM 13.5507 113.3186 218° Southwest  Level Estimated
Mon 06:02:00 AM 13.4788 113.2610 218° Southwest  Level Estimated
Mon 06:03:00 AM 13.4069 113.2035 218° Southwest  Level Estimated
Mon 06:04:00 AM 13.3350 113.1460 218° Southwest  Level Estimated
Mon 06:05:00 AM 13.2630 113.0885 218° Southwest  Level Estimated
Mon 06:06:00 AM 13.1911 113.0311 218° Southwest  Level Estimated
Mon 06:07:00 AM 13.1191 112.9736 218° Southwest  Level Estimated
Mon 06:08:00 AM 13.0471 112.9163 218° Southwest  Level Estimated
Mon 06:09:00 AM 12.9752 112.8589 218° Southwest  Level Estimated
Mon 06:10:00 AM 12.9032 112.8016 218° Southwest  Level Estimated
Mon 06:11:00 AM 12.8312 112.7444 218° Southwest  Level Estimated
Mon 06:12:00 AM 12.7591 112.6871 218° Southwest  Level Estimated
Mon 06:13:00 AM 12.6871 112.6299 218° Southwest  Level Estimated
Mon 06:13:42 AM 9.5790 109.8840 218° Southwest 486 559 36,000  Level FlightAware ADS-B
Mon 06:14:00 AM 12.6150 112.5728 218° Southwest  Level Estimated
Mon 06:14:22 AM 9.5090 109.8360 214° Southwest 485 558 36,000  Level FlightAware ADS-B
Mon 06:15:12 AM 9.4180 109.7720 215° Southwest 486 559 36,000  Level FlightAware ADS-B
Mon 06:16:02 AM 9.3200 109.7020 215° Southwest 487 560 36,000  Level FlightAware ADS-B
Mon 06:16:37 AM 9.2620 109.6620 214° Southwest 487 560 36,000  Level FlightAware ADS-B
Mon 06:17:17 AM 9.1990 109.6190 214° Southwest 487 560 36,000  Level FlightAware ADS-B
Mon 06:18:07 AM 9.1190 109.5650 214° Southwest 487 560 36,000  Level FlightAware ADS-B
Mon 06:18:47 AM 9.0560 109.5210 215° Southwest 487 560 36,000  Level FlightAware ADS-B
Mon 06:19:27 AM 8.9920 109.4780 214° Southwest 487 560 36,000  Level FlightAware ADS-B
Mon 06:20:07 AM 8.8650 109.3830 216° Southwest 486 559 36,000  Level FlightAware ADS-B
Mon 06:20:52 AM 8.7920 109.3330 214° Southwest 486 559 36,000  Level FlightAware ADS-B
Mon 06:21:32 AM 8.7290 109.2900 214° Southwest 486 559 36,000  Level FlightAware ADS-B
Mon 06:22:12 AM 8.6650 109.2470 214° Southwest 486 559 36,000  Level FlightAware ADS-B
Mon 06:23:02 AM 8.5400 109.1570 215° Southwest 486 559 36,000  Level FlightAware ADS-B
Mon 06:23:42 AM 8.4650 109.1050 214° Southwest 485 558 36,000  Level FlightAware ADS-B
Mon 06:24:27 AM 8.3810 109.0470 214° Southwest 482 555 36,000  Level FlightAware ADS-B
Mon 06:25:07 AM 8.3130 109.0000 214° Southwest 482 555 36,000  Level FlightAware ADS-B
Mon 06:25:47 AM 8.2500 108.9570 214° Southwest 482 555 36,000  Level FlightAware ADS-B
Mon 06:26:27 AM 8.1870 108.9140 214° Southwest 482 555 36,000  Level FlightAware ADS-B
Mon 06:27:07 AM 8.1240 108.8710 214° Southwest 482 555 36,000  Level FlightAware ADS-B
Mon 06:27:47 AM 8.0620 108.8280 214° Southwest 482 555 36,000  Level FlightAware ADS-B
Mon 06:28:37 AM 7.9830 108.7750 214° Southwest 482 555 36,000  Level FlightAware ADS-B
Mon 06:29:17 AM 7.9200 108.7320 214° Southwest 482 555 36,000  Level FlightAware ADS-B
Mon 06:29:57 AM 7.8570 108.6890 214° Southwest 482 555 36,000  Level FlightAware ADS-B
Mon 06:30:37 AM 7.7940 108.6460 214° Southwest 482 555 36,000  Level FlightAware ADS-B
Mon 06:31:17 AM 7.7320 108.6040 214° Southwest 482 555 36,000  Level FlightAware ADS-B
Mon 06:32:07 AM 7.6530 108.5500 214° Southwest 482 555 36,000  Level FlightAware ADS-B
Mon 06:32:47 AM 7.5900 108.5070 214° Southwest 482 555 36,000  Level FlightAware ADS-B
Mon 06:33:37 AM 7.3740 108.3500 216° Southwest 483 556 36,000  Level FlightAware ADS-B
Mon 06:34:27 AM 7.2950 108.2960 214° Southwest 483 556 36,000  Level FlightAware ADS-B
Mon 06:35:07 AM 7.2320 108.2540 213° Southwest 483 556 36,000  Level FlightAware ADS-B
Mon 06:35:47 AM 7.1690 108.2110 214° Southwest 483 556 36,000  Level FlightAware ADS-B
Mon 06:36:27 AM 7.1060 108.1680 214° Southwest 483 556 36,000  Level FlightAware ADS-B
Mon 06:37:07 AM 7.0430 108.1250 214° Southwest 483 556 36,000  Level FlightAware ADS-B
Mon 06:37:57 AM 6.9650 108.0720 214° Southwest 483 556 36,000  Level FlightAware ADS-B
Mon 06:38:37 AM 6.9020 108.0290 214° Southwest 483 556 36,000  Level FlightAware ADS-B
Mon 06:39:17 AM 6.8390 107.9860 214° Southwest 483 556 36,000  Level FlightAware ADS-B
Mon 06:39:57 AM 6.7760 107.9430 214° Southwest 483 556 36,000  Level FlightAware ADS-B
Mon 06:40:37 AM 6.7130 107.9000 214° Southwest 483 556 36,000  Level FlightAware ADS-B
Mon 06:41:27 AM 6.6340 107.8470 214° Southwest 483 556 36,000  Level FlightAware ADS-B
Mon 06:42:07 AM 6.5710 107.8040 214° Southwest 483 556 36,000  Level FlightAware ADS-B
Mon 06:42:47 AM 6.5080 107.7610 214° Southwest 483 556 36,000  Level FlightAware ADS-B
Mon 06:45:00 AM 6.3452 107.6407 216° Southwest  Level Estimated
Mon 06:46:00 AM 6.2718 107.5864 216° Southwest  Level Estimated
Mon 06:47:00 AM 6.1983 107.5322 216° Southwest  Level Estimated
Mon 06:48:00 AM 6.1248 107.4779 216° Southwest  Level Estimated
Mon 06:49:00 AM 6.0514 107.4237 216° Southwest  Level Estimated
Mon 06:50:00 AM 5.9779 107.3695 216° Southwest  Level Estimated
Mon 06:51:00 AM 5.9044 107.3154 216° Southwest  Level Estimated
Mon 06:52:00 AM 5.8309 107.2612 216° Southwest  Level Estimated
Mon 06:53:00 AM 5.7575 107.2070 216° Southwest  Level Estimated
Mon 06:54:00 AM 5.6840 107.1529 216° Southwest  Level Estimated
Mon 06:55:00 AM 5.6105 107.0988 216° Southwest  Level Estimated
Mon 06:56:00 AM 5.5370 107.0446 216° Southwest  Level Estimated
Mon 06:57:00 AM 5.4634 106.9905 216° Southwest  Level Estimated
Mon 06:58:00 AM 5.3899 106.9365 216° Southwest  Level Estimated
Mon 06:59:00 AM 5.3164 106.8824 216° Southwest  Level Estimated
Mon 06:59:07 AM 4.5320 106.3810 216° Southwest 489 563 36,000  Level FlightAware ADS-B
Mon 06:59:47 AM 4.4560 106.3290 214° Southwest 488 562 36,000  Level FlightAware ADS-B
Mon 07:00:27 AM 4.3930 106.2860 214° Southwest 488 562 36,000  Level FlightAware ADS-B
Mon 07:01:17 AM 4.3130 106.2330 213° Southwest 488 562 36,000  Level FlightAware ADS-B
Mon 07:01:57 AM 4.2490 106.1890 214° Southwest 488 562 36,000  Level FlightAware ADS-B
Mon 07:02:37 AM 4.1860 106.1460 214° Southwest 488 562 36,000  Level FlightAware ADS-B
Mon 07:03:17 AM 4.1220 106.1030 214° Southwest 488 562 36,000  Level FlightAware ADS-B
Mon 07:04:02 AM 4.0500 105.9190 249° West 487 560 36,000  Level FlightAware ADS-B
Mon 07:04:47 AM 3.9850 105.8400 230° Southwest 487 560 36,000  Level FlightAware ADS-B
Mon 07:05:27 AM 3.9280 105.7700 231° Southwest 487 560 36,000  Level FlightAware ADS-B
Mon 07:06:07 AM 3.8750 105.7050 231° Southwest 487 560 36,000  Level FlightAware ADS-B
Mon 07:06:52 AM 3.8080 105.6220 231° Southwest 487 560 36,000  Level FlightAware ADS-B
Mon 07:07:37 AM 3.7450 105.5440 231° Southwest 486 559 36,000  Level FlightAware ADS-B
Mon 07:08:17 AM 3.6860 105.4720 231° Southwest 486 559 36,000  Level FlightAware ADS-B
Mon 07:09:02 AM 3.6230 105.3940 231° Southwest 484 557 36,000  Level FlightAware ADS-B
Mon 07:09:42 AM 3.5670 105.3250 231° Southwest 485 558 36,000  Level FlightAware ADS-B
Mon 07:10:22 AM 3.5140 105.2590 231° Southwest 485 558 36,000 -71 Level FlightAware ADS-B
Mon 07:11:07 AM 3.4460 105.1760 231° Southwest 483 556 35,900 -494 Descending FlightAware ADS-B
Mon 07:11:47 AM 3.3820 105.1110 225° Southwest 482 555 35,300 -1,059 Descending FlightAware ADS-B
Mon 07:12:32 AM 3.3110 105.0410 225° Southwest 485 558 34,400 -1,129 Descending FlightAware ADS-B
Mon 07:13:12 AM 3.2440 104.9860 219° Southwest 487 560 33,700 -1,350 Descending FlightAware ADS-B
Mon 07:13:52 AM 3.1580 104.9570 199° South 496 571 32,600 -1,412 Descending FlightAware ADS-B
Mon 07:14:37 AM 3.0500 104.9550 181° South 501 577 31,700 -988 Descending FlightAware ADS-B
Mon 07:15:17 AM 2.9580 104.9440 187° South 486 559 31,200 -900 Descending FlightAware ADS-B
Mon 07:15:57 AM 2.8850 104.9020 210° Southwest 462 532 30,500 -1,129 Descending FlightAware ADS-B
Mon 07:16:42 AM 2.8330 104.8260 236° Southwest 437 503 29,600 -1,125 Descending FlightAware ADS-B
Mon 07:17:17 AM 2.8220 104.7550 261° West 418 481 29,000 -1,129 Descending FlightAware ADS-B
Mon 07:18:07 AM 2.8230 104.6660 271° West 402 463 28,000 -1,133 Descending FlightAware ADS-B
Mon 07:18:47 AM 2.8080 104.5900 259° West 396 456 27,300 -1,050 Descending FlightAware ADS-B
Mon 07:19:27 AM 2.7830 104.5240 249° West 396 456 26,600 -988 Descending FlightAware ADS-B
Mon 07:20:12 AM 2.7550 104.4460 250° West 392 451 25,900 -988 Descending FlightAware ADS-B
Mon 07:20:52 AM 2.7290 104.3770 249° West 384 442 25,200 -1,200 Descending FlightAware ADS-B
Mon 07:21:32 AM 2.6900 104.3210 235° Southwest 380 437 24,300 -1,553 Descending FlightAware ADS-B
Mon 07:22:17 AM 2.6370 104.2580 230° Southwest 379 436 23,000 -1,624 Descending FlightAware ADS-B
Mon 07:22:57 AM 2.5910 104.2040 230° Southwest 374 430 22,000 -1,457 Descending FlightAware ADS-B
Mon 07:23:27 AM 2.5540 104.1700 223° Southwest 367 422 21,300 -1,371 Descending FlightAware ADS-B
Mon 07:24:07 AM 2.4920 104.1510 197° South 352 405 20,400 -1,412 Descending FlightAware ADS-B
Mon 07:24:52 AM 2.4190 104.1440 185° South 347 399 19,300 -1,412 Descending FlightAware ADS-B
Mon 07:25:32 AM 2.3560 104.1390 185° South 339 390 18,400 -1,275 Descending FlightAware ADS-B
Mon 07:26:12 AM 2.2940 104.1330 186° South 331 381 17,600 -1,341 Descending FlightAware ADS-B
Mon 07:26:57 AM 2.2250 104.1270 185° South 328 377 16,500 -1,412 Descending FlightAware ADS-B
Mon 07:27:37 AM 2.1640 104.1210 186° South 320 368 15,600 -1,200 Descending FlightAware ADS-B
Mon 07:28:22 AM 2.0980 104.1150 185° South 322 371 14,800 -1,059 Descending FlightAware ADS-B
Mon 07:29:02 AM 2.0390 104.1100 185° South 318 366 14,100 -988 Descending FlightAware ADS-B
Mon 07:29:47 AM 1.9710 104.1050 184° South 316 364 13,400 -847 Descending FlightAware ADS-B
Mon 07:30:27 AM 1.9160 104.1050 180° South 312 359 12,900 -750 Descending FlightAware ADS-B
Mon 07:31:07 AM 1.8540 104.1060 179° South 309 356 12,400 -706 Descending FlightAware ADS-B
Mon 07:31:52 AM 1.7930 104.1060 180° South 307 353 11,900 -675 Descending FlightAware ADS-B
Mon 07:32:27 AM 1.7440 104.1060 180° South 305 351 11,500 -675 Descending FlightAware ADS-B
Mon 07:33:12 AM 1.6800 104.1060 180° South 282 325 11,000 -600 Descending FlightAware ADS-B
Mon 07:33:57 AM 1.6250 104.1070 179° South 266 306 10,600 -565 Descending FlightAware ADS-B
Mon 07:34:37 AM 1.5730 104.1130 173° South 263 303 10,200 -686 Descending FlightAware ADS-B
Mon 07:35:07 AM 1.5380 104.1180 172° South 265 305 9,800 -700 Descending FlightAware ADS-B
Mon 07:35:37 AM 1.5000 104.1240 171° South 266 306 9,500 -764 Descending FlightAware ADS-B
Mon 07:36:02 AM 1.4710 104.1280 172° South 266 306 9,100 -982 Descending FlightAware ADS-B
Mon 07:36:32 AM 1.4350 104.1210 191° South 271 312 8,600 -873 Descending FlightAware ADS-B
Mon 07:36:57 AM 1.4050 104.1080 203° Southwest 267 307 8,300 -764 Descending FlightAware ADS-B
Mon 07:37:27 AM 1.3710 104.0940 202° Southwest 265 305 7,900 -764 Descending FlightAware ADS-B
Mon 07:37:52 AM 1.3440 104.0820 204° Southwest 260 299 7,600 -655 Descending FlightAware ADS-B
Mon 07:38:22 AM 1.3100 104.0690 201° Southwest 261 300 7,300 -700 Descending FlightAware ADS-B
Mon 07:38:52 AM 1.2760 104.0560 201° Southwest 260 299 6,900 -900 Descending FlightAware ADS-B
Mon 07:39:02 AM 1.2650 104.0510 204° Southwest 259 298 6,700 -1,050 Descending FlightAware ADS-B
Mon 07:39:32 AM 1.2320 104.0380 201° Southwest 253 291 6,200 -1,100 Descending FlightAware ADS-B
Mon 07:40:02 AM 1.1980 104.0260 199° South 252 290 5,600 -1,091 Descending FlightAware ADS-B
Mon 07:40:27 AM 1.1700 104.0150 201° Southwest 249 287 5,200 -1,091 Descending FlightAware ADS-B
Mon 07:40:57 AM 1.1420 103.9960 214° Southwest 247 284 4,600 -1,067 Descending FlightAware ADS-B
Mon 07:41:12 AM 1.1370 103.9820 250° West 246 283 4,400 -1,050 Descending FlightAware ADS-B
Mon 07:41:37 AM 1.1300 103.9530 256° West 244 281 3,900 -1,200 Descending FlightAware ADS-B
Mon 07:41:57 AM 1.1250 103.9310 257° West 243 280 3,500 -933 Descending FlightAware ADS-B
Mon 07:42:22 AM 1.1350 103.9080 294° West 231 266 3,200 -750 Descending FlightAware ADS-B
Mon 07:42:37 AM 1.1500 103.9000 332° Northwest 220 253 3,000 -720 Descending FlightAware ADS-B
Mon 07:42:47 AM 1.1580 103.9000 360° North 217 250 2,900 -450 Descending FlightAware ADS-B
Mon 07:43:17 AM 1.1880 103.9100 18° North 197 227 2,700 -200 Descending FlightAware ADS-B
Mon 07:43:47 AM 1.2130 103.9200 22° Northeast 194 223 2,700 -218 Level FlightAware ADS-B
Mon 07:44:12 AM 1.2330 103.9280 22° Northeast 195 224 2,500 -655 Descending FlightAware ADS-B
Mon 07:44:42 AM 1.2570 103.9390 25° Northeast 181 208 2,100 -933 Descending FlightAware ADS-B
Mon 07:44:57 AM 1.2690 103.9440 23° Northeast 171 197 1,800 -900 Descending FlightAware ADS-B
Mon 07:45:22 AM 1.2850 103.9510 24° Northeast 157 181 1,500 -750 Descending FlightAware ADS-B
Mon 07:45:37 AM 1.2960 103.9550 20° North 155 178 1,300 -800 Descending FlightAware ADS-B
Mon 07:46:07 AM 1.3160 103.9630 22° Northeast 151 174 900 -764 Descending FlightAware ADS-B
Mon 07:46:32 AM 1.3310 103.9700 25° Northeast 148 170 600 -720 Descending FlightAware ADS-B
Mon 07:46:57 AM 1.3480 103.9770 22° Northeast 151 174 300 -720 Descending FlightAware ADS-B

Login

Don't have an account? Register now (free) for customized features, flight alerts, and more!